createdAt,value
2022-08-18T00:01:13.371Z,4.22
2022-08-18T00:03:56.899Z,3.97
2022-08-18T00:06:32.502Z,3.75
2022-08-18T00:09:01.559Z,3.47
2022-08-18T00:11:41.385Z,3.60
2022-08-18T00:14:21.215Z,3.33
2022-08-18T00:16:52.149Z,3.50
2022-08-18T00:19:20.177Z,3.40
2022-08-18T00:22:14.886Z,3.38
2022-08-18T00:24:48.174Z,3.53
2022-08-18T00:27:22.922Z,3.38
2022-08-18T00:29:53.532Z,3.22
2022-08-18T00:32:23.590Z,3.25
2022-08-18T00:34:51.677Z,3.15
2022-08-18T00:37:21.689Z,3.30
2022-08-18T00:39:52.589Z,2.78
2022-08-18T00:42:27.462Z,3.42
2022-08-18T00:45:00.270Z,2.95
2022-08-18T00:47:41.385Z,3.00
2022-08-18T00:50:15.415Z,3.47
2022-08-18T00:52:50.940Z,3.35
2022-08-18T00:55:19.872Z,3.45
2022-08-18T00:57:50.316Z,3.83
2022-08-18T01:00:18.669Z,3.63
2022-08-18T01:02:51.696Z,3.83
2022-08-18T01:05:23.753Z,4.30
2022-08-18T01:07:53.409Z,4.22
2022-08-18T01:10:24.111Z,4.18
2022-08-18T01:12:55.363Z,3.88
2022-08-18T01:15:28.093Z,4.07
2022-08-18T01:18:16.006Z,4.38
2022-08-18T01:21:17.753Z,4.32
2022-08-18T01:23:49.467Z,3.45
2022-08-18T01:26:18.584Z,4.03
2022-08-18T01:28:49.519Z,3.97
2022-08-18T01:31:38.017Z,3.90
2022-08-18T01:34:07.460Z,2.75
2022-08-18T01:36:38.436Z,2.70
2022-08-18T01:39:10.796Z,2.65
2022-08-18T01:41:39.768Z,2.80
2022-08-18T01:44:11.749Z,2.78
2022-08-18T01:46:41.869Z,2.63
2022-08-18T01:49:13.286Z,2.45
2022-08-18T01:51:42.617Z,2.53
2022-08-18T01:54:15.055Z,2.20
2022-08-18T01:56:43.816Z,2.60
2022-08-18T01:59:14.537Z,2.20
2022-08-18T02:01:50.404Z,2.55
2022-08-18T02:04:40.564Z,2.20
2022-08-18T02:07:12.806Z,2.40
2022-08-18T02:09:43.859Z,2.45
2022-08-18T02:12:12.154Z,2.15
2022-08-18T02:14:40.663Z,2.60
2022-08-18T02:17:11.155Z,2.35
2022-08-18T02:19:41.468Z,1.90
2022-08-18T02:22:11.757Z,2.40
2022-08-18T02:24:40.216Z,2.20
2022-08-18T02:27:11.569Z,2.50
2022-08-18T02:29:40.046Z,1.90
2022-08-18T02:32:09.418Z,2.35
2022-08-18T02:34:37.662Z,2.80
2022-08-18T02:37:05.786Z,2.97
2022-08-18T02:39:38.048Z,2.97
2022-08-18T02:42:07.308Z,3.30
2022-08-18T02:44:37.064Z,3.55
2022-08-18T02:47:05.453Z,3.15
2022-08-18T02:49:33.862Z,3.67
2022-08-18T02:52:01.958Z,3.15
2022-08-18T02:54:30.051Z,3.08
2022-08-18T02:56:58.176Z,2.70
2022-08-18T02:59:28.415Z,2.78
2022-08-18T03:02:01.597Z,3.15
2022-08-18T03:04:31.242Z,3.08
2022-08-18T03:07:01.408Z,3.20
2022-08-18T03:09:32.900Z,3.00
2022-08-18T03:12:01.404Z,2.78
2022-08-18T03:14:30.468Z,3.30
2022-08-18T03:16:58.623Z,2.80
2022-08-18T03:19:30.221Z,3.00
2022-08-18T03:22:03.054Z,2.47
2022-08-18T03:24:33.284Z,2.58
2022-08-18T03:27:02.665Z,2.50
2022-08-18T03:29:32.746Z,2.70
2022-08-18T03:32:02.116Z,2.70
2022-08-18T03:34:32.366Z,2.78
2022-08-18T03:37:00.402Z,2.50
2022-08-18T03:39:29.600Z,2.40
2022-08-18T03:42:01.699Z,2.75
2022-08-18T03:44:31.766Z,2.78
2022-08-18T03:47:01.102Z,2.97
2022-08-18T03:49:29.207Z,3.13
2022-08-18T03:52:00.854Z,2.85
2022-08-18T03:54:29.317Z,2.92
2022-08-18T03:56:57.367Z,3.17
2022-08-18T03:59:27.476Z,2.78
2022-08-18T04:01:56.246Z,3.53
2022-08-18T04:04:26.843Z,2.78
2022-08-18T04:06:57.180Z,2.88
2022-08-18T04:09:28.580Z,2.85
2022-08-18T04:11:57.310Z,3.10
2022-08-18T04:14:28.962Z,3.00
2022-08-18T04:16:58.274Z,2.70
2022-08-18T04:19:27.815Z,2.47
2022-08-18T04:21:58.165Z,2.17
2022-08-18T04:24:32.035Z,2.30
2022-08-18T04:27:03.200Z,2.58
2022-08-18T04:29:31.208Z,2.92
2022-08-18T04:32:03.990Z,2.63
2022-08-18T04:34:33.649Z,2.47
2022-08-18T04:37:02.440Z,2.50
2022-08-18T04:39:32.126Z,2.72
2022-08-18T04:42:01.694Z,2.65
2022-08-18T04:44:29.741Z,2.55
2022-08-18T04:46:57.717Z,2.78
2022-08-18T04:49:27.016Z,2.33
2022-08-18T04:52:36.565Z,2.72
2022-08-18T04:55:03.836Z,2.40
2022-08-18T04:57:34.780Z,2.85
2022-08-18T05:00:06.012Z,2.50
2022-08-18T05:02:35.040Z,2.00
2022-08-18T05:05:04.093Z,2.40
2022-08-18T05:07:32.420Z,2.85
2022-08-18T05:10:00.563Z,2.38
2022-08-18T05:12:29.966Z,2.40
2022-08-18T05:14:58.039Z,2.50
2022-08-18T05:17:30.481Z,2.20
2022-08-18T05:20:00.159Z,2.38
2022-08-18T05:22:31.064Z,2.70
2022-08-18T05:25:00.095Z,2.50
2022-08-18T05:27:34.131Z,2.47
2022-08-18T05:30:02.608Z,2.60
2022-08-18T05:32:47.126Z,2.85
2022-08-18T05:35:22.255Z,2.80
2022-08-18T05:38:06.285Z,2.70
2022-08-18T05:40:35.900Z,2.50
2022-08-18T05:43:07.443Z,3.35
2022-08-18T05:45:36.333Z,3.00
2022-08-18T05:48:04.852Z,3.53
2022-08-18T05:50:36.398Z,3.58
2022-08-18T05:53:14.073Z,3.22
2022-08-18T05:56:04.916Z,3.60
2022-08-18T05:58:38.204Z,3.38
2022-08-18T06:01:10.453Z,3.63
2022-08-18T06:03:45.219Z,3.90
2022-08-18T06:06:18.339Z,3.75
2022-08-18T06:08:52.222Z,3.85
2022-08-18T06:11:22.672Z,3.40
2022-08-18T06:13:57.762Z,3.85
2022-08-18T06:16:41.167Z,3.78
2022-08-18T06:19:28.086Z,3.72
2022-08-18T06:22:04.713Z,3.80
2022-08-18T06:24:39.246Z,3.58
2022-08-18T06:27:16.237Z,3.95
2022-08-18T06:29:58.885Z,4.20
2022-08-18T06:32:41.747Z,3.30
2022-08-18T06:35:20.115Z,3.45
2022-08-18T06:38:18.225Z,4.10
2022-08-18T06:40:48.263Z,3.45
2022-08-18T06:43:18.189Z,3.30
2022-08-18T06:45:53.110Z,3.42
2022-08-18T06:48:29.176Z,4.00
2022-08-18T06:51:00.407Z,4.05
2022-08-18T06:53:53.813Z,3.38
2022-08-18T06:56:26.323Z,3.42
2022-08-18T06:58:55.527Z,3.83
2022-08-18T07:01:26.368Z,3.58
2022-08-18T07:03:57.252Z,3.60
2022-08-18T07:06:30.352Z,4.03
2022-08-18T07:09:21.732Z,3.53
2022-08-18T07:12:06.162Z,3.50
2022-08-18T07:14:44.266Z,3.15
2022-08-18T07:17:20.396Z,3.17
2022-08-18T07:19:56.717Z,3.03
2022-08-18T07:22:29.872Z,3.10
2022-08-18T07:25:07.286Z,2.83
2022-08-18T07:27:48.968Z,2.50
2022-08-18T07:30:29.472Z,3.10
2022-08-18T07:33:03.464Z,2.97
2022-08-18T07:35:39.241Z,3.00
2022-08-18T07:38:40.965Z,2.88
2022-08-18T07:41:09.611Z,3.10
2022-08-18T07:43:47.494Z,3.17
2022-08-18T07:46:23.159Z,3.33
2022-08-18T07:48:52.802Z,3.10
2022-08-18T07:51:25.027Z,3.33
2022-08-18T07:54:02.225Z,3.08
2022-08-18T07:56:39.646Z,3.72
2022-08-18T07:59:16.938Z,3.55
2022-08-18T08:01:50.591Z,3.28
2022-08-18T08:04:27.369Z,3.38
2022-08-18T08:07:24.124Z,3.35
2022-08-18T08:10:04.089Z,3.22
2022-08-18T08:12:39.042Z,3.30
2022-08-18T08:15:17.732Z,3.35
2022-08-18T08:17:55.048Z,3.67
2022-08-18T08:20:32.852Z,3.70
2022-08-18T08:23:17.295Z,3.72
2022-08-18T08:25:57.871Z,3.42
2022-08-18T08:28:40.622Z,3.53
2022-08-18T08:34:11.206Z,3.55
2022-08-18T08:36:45.031Z,3.88
2022-08-18T08:39:19.725Z,3.78
2022-08-18T08:42:29.317Z,3.35
2022-08-18T08:44:59.235Z,3.92
2022-08-18T08:47:33.177Z,2.67
2022-08-18T08:50:08.289Z,2.70
2022-08-18T08:52:42.312Z,2.90
2022-08-18T08:55:16.448Z,2.70
2022-08-18T08:58:04.492Z,2.65
2022-08-18T09:00:32.974Z,2.63
2022-08-18T09:03:30.137Z,2.97
2022-08-18T09:06:10.810Z,3.40
2022-08-18T09:09:02.901Z,2.45
2022-08-18T09:11:55.250Z,2.40
2022-08-18T09:14:54.755Z,3.05
2022-08-18T09:17:44.523Z,2.60
2022-08-18T09:20:29.229Z,2.90
2022-08-18T09:23:06.219Z,2.78
2022-08-18T09:25:47.720Z,2.90
2022-08-18T09:28:19.014Z,2.83
2022-08-18T09:31:10.621Z,2.88
2022-08-18T09:34:02.526Z,2.80
2022-08-18T09:36:49.465Z,3.03
2022-08-18T09:39:43.834Z,2.65
2022-08-18T09:42:15.886Z,2.92
2022-08-18T09:45:07.624Z,3.22
2022-08-18T09:48:25.356Z,3.30
2022-08-18T09:51:23.490Z,3.10
2022-08-18T09:54:13.222Z,2.70
2022-08-18T09:57:19.219Z,2.85
2022-08-18T10:03:31.416Z,3.20
2022-08-18T10:06:20.805Z,3.40
2022-08-18T10:12:36.514Z,2.90
2022-08-18T10:18:27.508Z,2.60
2022-08-18T10:21:03.661Z,2.95
2022-08-18T10:24:08.176Z,3.17
2022-08-18T10:27:35.656Z,3.20
2022-08-18T10:30:06.479Z,3.15
2022-08-18T10:32:54.063Z,3.47
2022-08-18T10:36:07.341Z,2.97
2022-08-18T10:38:45.970Z,3.33
2022-08-18T10:41:31.489Z,3.15
2022-08-18T10:44:15.361Z,3.30
2022-08-18T10:46:51.651Z,2.90
2022-08-18T10:49:26.084Z,2.75
2022-08-18T10:52:21.112Z,2.47
2022-08-18T10:55:48.047Z,3.28
2022-08-18T10:58:35.759Z,2.95
2022-08-18T11:01:12.592Z,2.83
2022-08-18T11:04:14.568Z,2.80
2022-08-18T11:10:13.277Z,2.70
2022-08-18T11:13:03.034Z,2.60
2022-08-18T11:15:48.135Z,2.80
2022-08-18T11:18:31.087Z,2.30
2022-08-18T11:21:23.834Z,2.15
2022-08-18T11:24:04.655Z,2.50
2022-08-18T11:26:35.120Z,2.58
2022-08-18T11:29:03.171Z,2.45
2022-08-18T11:31:34.905Z,2.33
2022-08-18T11:34:06.812Z,2.88
2022-08-18T11:36:34.797Z,2.50
2022-08-18T11:39:02.810Z,2.47
2022-08-18T11:44:25.117Z,2.38
2022-08-18T11:46:57.776Z,2.33
2022-08-18T11:49:33.387Z,2.72
2022-08-18T11:52:05.847Z,2.30
2022-08-18T11:57:32.594Z,2.70
2022-08-18T12:00:01.295Z,2.40
2022-08-18T12:02:30.726Z,2.20
2022-08-18T12:05:08.479Z,2.90
2022-08-18T12:07:57.019Z,2.78
2022-08-18T12:10:29.443Z,2.67
2022-08-18T12:13:00.501Z,2.97
2022-08-18T12:15:44.421Z,3.05
2022-08-18T12:18:26.161Z,2.60
2022-08-18T12:20:57.669Z,2.78
2022-08-18T12:23:26.126Z,3.00
2022-08-18T12:25:54.084Z,3.05
2022-08-18T12:28:22.779Z,2.97
2022-08-18T12:30:57.468Z,2.72
2022-08-18T12:33:34.424Z,3.03
2022-08-18T12:36:15.803Z,3.00
2022-08-18T12:38:52.276Z,3.20
2022-08-18T12:41:24.575Z,2.60
2022-08-18T12:43:59.091Z,3.35
2022-08-18T12:46:27.903Z,3.22
2022-08-18T12:48:57.638Z,3.55
2022-08-18T12:51:30.551Z,3.05
2022-08-18T12:54:00.358Z,3.50
2022-08-18T12:56:31.041Z,3.55
2022-08-18T12:59:00.023Z,3.45
2022-08-18T13:01:28.498Z,3.13
2022-08-18T13:07:00.390Z,3.38
2022-08-18T13:09:35.345Z,3.17
2022-08-18T13:12:17.262Z,2.67
2022-08-18T13:14:45.718Z,2.70
2022-08-18T13:17:30.020Z,2.85
2022-08-18T13:20:07.706Z,2.85
2022-08-18T13:22:36.010Z,3.08
2022-08-18T13:25:07.339Z,2.95
2022-08-18T13:27:37.640Z,3.15
2022-08-18T13:30:30.119Z,3.20
2022-08-18T13:33:00.538Z,3.33
2022-08-18T13:35:38.131Z,3.03
2022-08-18T13:38:17.382Z,3.47
2022-08-18T13:40:49.413Z,3.33
2022-08-18T13:43:18.540Z,2.83
2022-08-18T13:45:53.228Z,3.10
2022-08-18T13:48:24.240Z,3.08
2022-08-18T13:50:55.996Z,3.22
2022-08-18T13:53:27.171Z,3.38
2022-08-18T13:55:58.017Z,3.30
2022-08-18T13:58:27.097Z,3.30
2022-08-18T14:01:15.912Z,2.90
2022-08-18T14:03:47.897Z,3.90
2022-08-18T14:06:22.481Z,3.20
2022-08-18T14:08:52.675Z,3.38
2022-08-18T14:11:23.611Z,3.05
2022-08-18T14:13:54.073Z,3.28
2022-08-18T14:16:23.195Z,3.28
2022-08-18T14:19:12.897Z,2.88
2022-08-18T14:22:03.603Z,3.20
2022-08-18T14:24:52.889Z,3.33
2022-08-18T14:27:26.530Z,3.30
2022-08-18T14:29:56.236Z,3.30
2022-08-18T14:32:29.133Z,3.20
2022-08-18T14:35:00.754Z,3.30
2022-08-18T14:37:43.141Z,3.30
2022-08-18T14:40:12.565Z,3.50
2022-08-18T14:42:55.193Z,3.45
2022-08-18T14:45:31.347Z,3.28
2022-08-18T14:48:07.286Z,3.33
2022-08-18T14:50:40.116Z,2.97
2022-08-18T14:53:15.073Z,3.13
2022-08-18T14:55:44.382Z,3.20
2022-08-18T14:58:18.890Z,2.92
2022-08-18T15:00:53.908Z,3.33
2022-08-18T15:03:42.889Z,3.08
2022-08-18T15:06:12.965Z,3.00
2022-08-18T15:08:46.883Z,3.45
2022-08-18T15:11:18.544Z,3.00
2022-08-18T15:13:51.661Z,3.10
2022-08-18T15:16:31.535Z,3.33
2022-08-18T15:19:00.358Z,3.22
2022-08-18T15:21:46.459Z,3.45
2022-08-18T15:24:39.651Z,3.10
2022-08-18T15:27:10.534Z,3.05
2022-08-18T15:29:47.473Z,3.20
2022-08-18T15:32:18.812Z,3.30
2022-08-18T15:34:51.207Z,3.00
2022-08-18T15:37:24.076Z,3.30
2022-08-18T15:40:02.845Z,3.15
2022-08-18T15:42:31.165Z,3.10
2022-08-18T15:45:11.793Z,3.60
2022-08-18T15:47:41.223Z,3.28
2022-08-18T15:50:25.904Z,3.50
2022-08-18T15:52:57.951Z,3.17
2022-08-18T15:55:35.970Z,2.88
2022-08-18T15:58:10.997Z,3.47
2022-08-18T16:00:43.803Z,3.05
2022-08-18T16:03:14.754Z,2.80
2022-08-18T16:05:52.568Z,3.60
2022-08-18T16:08:22.802Z,3.15
2022-08-18T16:10:53.522Z,3.63
2022-08-18T16:13:21.983Z,2.85
2022-08-18T16:15:50.512Z,3.10
2022-08-18T16:18:20.881Z,3.05
2022-08-18T16:20:50.623Z,3.05
2022-08-18T16:23:21.116Z,3.10
2022-08-18T16:25:49.417Z,3.10
2022-08-18T16:28:18.997Z,3.33
2022-08-18T16:30:48.207Z,3.30
2022-08-18T16:33:16.171Z,3.38
2022-08-18T16:35:45.416Z,3.17
2022-08-18T16:38:13.901Z,3.22
2022-08-18T16:40:41.960Z,3.45
2022-08-18T16:43:10.528Z,3.80
2022-08-18T16:45:40.644Z,3.20
2022-08-18T16:48:09.039Z,3.20
2022-08-18T16:50:39.334Z,3.60
2022-08-18T16:53:07.299Z,3.45
2022-08-18T16:55:35.470Z,3.50
2022-08-18T16:58:21.194Z,2.92
2022-08-18T17:01:08.119Z,2.92
2022-08-18T17:03:53.947Z,3.08
2022-08-18T17:06:22.072Z,3.33
2022-08-18T17:08:50.483Z,3.80
2022-08-18T17:11:20.525Z,3.40
2022-08-18T17:13:50.111Z,3.17
2022-08-18T17:16:20.890Z,3.15
2022-08-18T17:18:49.810Z,3.15
2022-08-18T17:21:23.832Z,3.08
2022-08-18T17:23:52.212Z,2.95
2022-08-18T17:26:30.067Z,3.47
2022-08-18T17:29:04.871Z,3.25
2022-08-18T17:31:36.031Z,3.13
2022-08-18T17:34:08.128Z,3.92
2022-08-18T17:36:41.198Z,3.58
2022-08-18T17:39:25.305Z,3.70
2022-08-18T17:42:13.162Z,3.80
2022-08-18T17:44:52.353Z,4.00
2022-08-18T17:47:29.037Z,3.20
2022-08-18T17:50:26.735Z,3.72
2022-08-18T17:53:05.269Z,3.75
2022-08-18T17:55:46.016Z,3.65
2022-08-18T17:58:24.634Z,3.40
2022-08-18T18:00:52.623Z,3.65
2022-08-18T18:03:22.688Z,3.63
2022-08-18T18:05:55.594Z,4.22
2022-08-18T18:08:51.130Z,3.42
2022-08-18T18:11:31.026Z,3.53
2022-08-18T18:14:00.640Z,3.30
2022-08-18T18:16:35.319Z,3.58
2022-08-18T18:19:07.414Z,3.38
2022-08-18T18:22:00.575Z,3.47
2022-08-18T18:24:32.329Z,3.22
2022-08-18T18:27:00.915Z,2.90
2022-08-18T18:29:35.635Z,3.45
2022-08-18T18:32:20.979Z,3.15
2022-08-18T18:35:08.278Z,3.25
2022-08-18T18:37:45.189Z,3.35
2022-08-18T18:40:28.860Z,3.55
2022-08-18T18:42:58.856Z,3.50
2022-08-18T18:45:31.136Z,3.80
2022-08-18T18:48:07.044Z,3.70
2022-08-18T18:50:53.008Z,3.67
2022-08-18T18:53:31.602Z,3.72
2022-08-18T18:56:14.501Z,3.67
2022-08-18T18:58:56.102Z,3.60
2022-08-18T19:01:43.834Z,3.78
2022-08-18T19:04:19.342Z,3.50
2022-08-18T19:06:55.355Z,3.00
2022-08-18T19:09:29.760Z,3.67
2022-08-18T19:12:09.625Z,3.38
2022-08-18T19:14:43.044Z,3.38
2022-08-18T19:17:23.572Z,3.45
2022-08-18T19:19:56.603Z,3.22
2022-08-18T19:22:32.460Z,3.35
2022-08-18T19:25:07.306Z,3.20
2022-08-18T19:27:40.082Z,3.20
2022-08-18T19:30:12.786Z,3.00
2022-08-18T19:32:45.461Z,3.25
2022-08-18T19:35:19.549Z,3.20
2022-08-18T19:38:09.387Z,3.83
2022-08-18T19:40:45.562Z,3.47
2022-08-18T19:43:29.875Z,3.47
2022-08-18T19:46:05.471Z,3.83
2022-08-18T19:48:39.314Z,3.55
2022-08-18T19:51:12.560Z,3.80
2022-08-18T19:54:01.504Z,3.75
2022-08-18T19:56:51.855Z,4.25
2022-08-18T19:59:37.249Z,3.58
2022-08-18T20:02:20.896Z,3.58
2022-08-18T20:05:03.827Z,4.10
2022-08-18T20:08:06.671Z,3.60
2022-08-18T20:10:51.682Z,3.55
2022-08-18T20:13:33.677Z,3.50
2022-08-18T20:16:24.980Z,3.20
2022-08-18T20:18:57.300Z,3.58
2022-08-18T20:21:44.201Z,3.65
2022-08-18T20:24:39.626Z,3.35
2022-08-18T20:27:35.544Z,3.22
2022-08-18T20:30:23.436Z,3.38
2022-08-18T20:33:20.723Z,3.17
2022-08-18T20:35:59.428Z,3.53
2022-08-18T20:38:35.271Z,3.80
2022-08-18T20:41:31.314Z,3.58
2022-08-18T20:44:28.882Z,3.55
2022-08-18T20:47:12.111Z,3.20
2022-08-18T20:49:54.242Z,3.47
2022-08-18T20:52:30.068Z,3.30
2022-08-18T20:55:12.092Z,3.10
2022-08-18T20:57:41.372Z,3.33
2022-08-18T21:00:15.302Z,3.20
2022-08-18T21:02:49.320Z,3.63
2022-08-18T21:05:27.870Z,3.60
2022-08-18T21:08:04.689Z,3.10
2022-08-18T21:10:34.517Z,3.63
2022-08-18T21:13:05.415Z,4.28
2022-08-18T21:15:39.059Z,3.70
2022-08-18T21:18:21.335Z,3.70
2022-08-18T21:20:50.003Z,3.75
2022-08-18T21:23:25.003Z,3.80
2022-08-18T21:25:55.922Z,3.95
2022-08-18T21:28:26.533Z,4.30
2022-08-18T21:31:42.315Z,4.15
2022-08-18T21:33:51.186Z,4.20
2022-08-18T21:36:20.506Z,4.65
2022-08-18T21:39:03.470Z,4.70
2022-08-18T21:41:40.503Z,4.18
2022-08-18T21:44:14.850Z,4.18
2022-08-18T21:46:46.015Z,4.15
2022-08-18T21:49:23.947Z,4.85
2022-08-18T21:51:52.773Z,3.88
2022-08-18T21:54:23.606Z,4.60
2022-08-18T21:57:19.508Z,4.60
2022-08-18T22:00:15.437Z,3.97
2022-08-18T22:02:45.350Z,4.32
2022-08-18T22:05:13.905Z,4.40
2022-08-18T22:07:48.763Z,4.15
2022-08-18T22:10:43.476Z,5.43
2022-08-18T22:13:38.167Z,5.88
2022-08-18T22:16:27.235Z,6.13
2022-08-18T22:19:12.706Z,5.60
2022-08-18T22:21:46.433Z,5.70
2022-08-18T22:24:22.006Z,6.45
2022-08-18T22:27:04.224Z,6.57
2022-08-18T22:29:45.473Z,6.10
2022-08-18T22:32:14.362Z,5.30
2022-08-18T22:34:44.034Z,6.18
2022-08-18T22:37:15.550Z,6.20
2022-08-18T22:39:50.744Z,6.80
2022-08-18T22:42:21.011Z,7.20
2022-08-18T22:44:49.542Z,6.35
2022-08-18T22:47:18.282Z,6.60
2022-08-18T22:49:47.895Z,6.00
2022-08-18T22:52:20.095Z,6.38
2022-08-18T22:54:49.506Z,6.00
2022-08-18T22:57:19.326Z,4.85
2022-08-18T22:59:51.982Z,5.22
2022-08-18T23:02:22.133Z,4.70
2022-08-18T23:04:51.645Z,4.55
2022-08-18T23:07:22.990Z,4.57
2022-08-18T23:09:50.998Z,5.05
2022-08-18T23:12:19.020Z,4.68
2022-08-18T23:14:49.570Z,5.22
2022-08-18T23:17:17.743Z,4.35
2022-08-18T23:19:46.841Z,5.10
2022-08-18T23:22:17.133Z,5.00
2022-08-18T23:24:45.063Z,4.93
2022-08-18T23:27:13.043Z,5.10
2022-08-18T23:29:41.318Z,4.32
2022-08-18T23:32:09.630Z,4.50
2022-08-18T23:34:37.837Z,4.95
2022-08-18T23:37:07.211Z,5.05
2022-08-18T23:39:38.486Z,4.93
2022-08-18T23:42:12.365Z,4.90
2022-08-18T23:44:41.145Z,5.07
2022-08-18T23:47:09.272Z,5.10
2022-08-18T23:49:38.284Z,5.00
2022-08-18T23:52:06.774Z,5.10
2022-08-18T23:54:37.583Z,4.68
2022-08-18T23:57:05.938Z,5.40
2022-08-18T23:59:33.911Z,5.40
